createdAt,value
2022-12-18T00:01:39.670Z,36.27
2022-12-18T00:04:10.413Z,30.20
2022-12-18T00:06:39.260Z,35.90
2022-12-18T00:09:08.048Z,35.60
2022-12-18T00:11:38.241Z,33.43
2022-12-18T00:14:06.942Z,34.90
2022-12-18T00:16:38.159Z,32.60
2022-12-18T00:19:08.621Z,24.03
2022-12-18T00:21:37.320Z,30.20
2022-12-18T00:24:06.543Z,28.90
2022-12-18T00:26:39.181Z,30.73
2022-12-18T00:29:09.670Z,34.90
2022-12-18T00:31:39.728Z,31.47
2022-12-18T00:34:08.914Z,30.80
2022-12-18T00:36:37.923Z,35.47
2022-12-18T00:39:08.515Z,35.30
2022-12-18T00:41:55.769Z,31.83
2022-12-18T00:44:24.463Z,31.40
2022-12-18T00:46:53.192Z,33.57
2022-12-18T00:49:22.876Z,31.20
2022-12-18T00:51:51.745Z,32.57
2022-12-18T00:54:20.536Z,31.37
2022-12-18T00:56:50.707Z,32.23
2022-12-18T00:59:21.044Z,29.50
2022-12-18T01:01:49.936Z,30.97
2022-12-18T01:04:18.875Z,30.07
2022-12-18T01:06:47.857Z,33.37
2022-12-18T01:09:16.547Z,30.77
2022-12-18T01:11:45.243Z,46.93
2022-12-18T01:14:15.377Z,35.70
2022-12-18T01:16:44.246Z,35.27
2022-12-18T01:19:13.031Z,37.07
2022-12-18T01:21:41.750Z,32.73
2022-12-18T01:24:13.950Z,40.80
2022-12-18T01:26:42.715Z,34.43
2022-12-18T01:29:11.394Z,32.50
2022-12-18T01:31:41.603Z,28.17
2022-12-18T01:34:11.468Z,35.93
2022-12-18T01:36:41.498Z,33.70
2022-12-18T01:39:13.405Z,34.80
2022-12-18T01:42:00.197Z,30.13
2022-12-18T01:44:58.350Z,35.40
2022-12-18T01:47:33.216Z,31.97
2022-12-18T01:50:06.857Z,29.87
2022-12-18T01:52:37.087Z,30.13
2022-12-18T01:55:09.103Z,33.93
2022-12-18T01:57:38.490Z,37.87
2022-12-18T02:00:11.867Z,38.23
2022-12-18T02:02:43.193Z,34.27
2022-12-18T02:05:14.051Z,34.70
2022-12-18T02:07:54.099Z,28.60
2022-12-18T02:10:28.556Z,32.80
2022-12-18T02:13:05.168Z,24.73
2022-12-18T02:15:41.605Z,35.40
2022-12-18T02:18:18.147Z,30.80
2022-12-18T02:20:50.377Z,35.40
2022-12-18T02:23:35.042Z,36.77
2022-12-18T02:26:16.870Z,30.60
2022-12-18T02:28:49.652Z,27.20
2022-12-18T02:31:22.329Z,27.73
2022-12-18T02:33:52.937Z,27.63
2022-12-18T02:36:24.409Z,29.53
2022-12-18T02:38:54.729Z,26.40
2022-12-18T02:41:26.947Z,24.67
2022-12-18T02:43:59.264Z,25.37
2022-12-18T02:46:35.689Z,25.90
2022-12-18T02:49:13.990Z,24.20
2022-12-18T02:51:52.547Z,23.67
2022-12-18T02:54:33.744Z,32.13
2022-12-18T02:57:12.191Z,26.37
2022-12-18T02:59:50.151Z,29.20
2022-12-18T03:02:26.316Z,26.20
2022-12-18T03:05:03.488Z,33.93
2022-12-18T03:07:39.317Z,27.57
2022-12-18T03:10:14.023Z,24.93
2022-12-18T03:12:49.652Z,29.57
2022-12-18T03:15:21.993Z,32.77
2022-12-18T03:17:55.232Z,25.50
2022-12-18T03:20:27.701Z,32.63
2022-12-18T03:23:02.606Z,35.43
2022-12-18T03:25:33.081Z,27.17
2022-12-18T03:28:05.875Z,29.90
2022-12-18T03:30:38.354Z,38.60
2022-12-18T03:33:12.994Z,33.07
2022-12-18T03:35:45.080Z,28.67
2022-12-18T03:38:14.265Z,35.07
2022-12-18T03:41:01.267Z,24.67
2022-12-18T03:43:44.056Z,33.50
2022-12-18T03:46:19.428Z,33.13
2022-12-18T03:48:52.268Z,31.00
2022-12-18T03:51:27.742Z,26.80
2022-12-18T03:54:00.966Z,26.87
2022-12-18T03:56:33.395Z,28.77
2022-12-18T03:59:06.052Z,35.03
2022-12-18T04:01:37.857Z,28.43
2022-12-18T04:04:09.159Z,30.57
2022-12-18T04:06:39.305Z,29.10
2022-12-18T04:09:08.270Z,28.57
2022-12-18T04:11:37.005Z,28.77
2022-12-18T04:14:07.489Z,30.17
2022-12-18T04:16:36.614Z,23.97
2022-12-18T04:19:05.299Z,28.47
2022-12-18T04:21:33.904Z,30.53
2022-12-18T04:24:02.632Z,38.17
2022-12-18T04:26:31.382Z,29.00
2022-12-18T04:29:00.052Z,30.00
2022-12-18T04:31:30.130Z,34.10
2022-12-18T04:33:58.864Z,29.67
2022-12-18T04:36:28.787Z,33.23
2022-12-18T04:38:57.615Z,29.20
2022-12-18T04:41:26.270Z,24.90
2022-12-18T04:43:55.004Z,27.93
2022-12-18T04:46:23.645Z,30.80
2022-12-18T04:48:53.765Z,30.07
2022-12-18T04:51:26.381Z,31.80
2022-12-18T04:53:55.792Z,33.03
2022-12-18T04:56:24.797Z,29.60
2022-12-18T04:58:53.520Z,30.90
2022-12-18T05:01:22.302Z,36.97
2022-12-18T05:03:53.419Z,32.43
2022-12-18T05:06:22.116Z,27.13
2022-12-18T05:08:50.721Z,29.37
2022-12-18T05:11:19.538Z,33.73
2022-12-18T05:13:49.302Z,29.17
2022-12-18T05:16:18.129Z,30.30
2022-12-18T05:18:46.800Z,38.77
2022-12-18T05:21:16.905Z,34.73
2022-12-18T05:23:45.594Z,30.67
2022-12-18T05:26:18.736Z,30.10
2022-12-18T05:28:48.229Z,23.70
2022-12-18T05:31:17.386Z,25.33
2022-12-18T05:33:46.396Z,32.20
2022-12-18T05:36:16.588Z,28.93
2022-12-18T05:38:45.409Z,32.20
2022-12-18T05:41:14.090Z,20.93
2022-12-18T05:43:43.448Z,33.37
2022-12-18T05:46:15.782Z,22.43
2022-12-18T05:48:45.063Z,28.70
2022-12-18T05:51:16.925Z,30.20
2022-12-18T05:53:46.196Z,28.70
2022-12-18T05:56:17.173Z,32.20
2022-12-18T05:58:46.195Z,32.03
2022-12-18T06:01:17.751Z,19.70
2022-12-18T06:03:47.162Z,32.30
2022-12-18T06:06:19.747Z,32.17
2022-12-18T06:08:49.149Z,28.53
2022-12-18T06:11:20.973Z,26.53
2022-12-18T06:13:56.336Z,31.53
2022-12-18T06:16:27.426Z,35.53
2022-12-18T06:18:58.072Z,31.57
2022-12-18T06:21:28.409Z,35.33
2022-12-18T06:23:57.172Z,38.23
2022-12-18T06:26:28.303Z,33.67
2022-12-18T06:28:57.807Z,29.67
2022-12-18T06:31:27.446Z,36.13
2022-12-18T06:33:56.314Z,31.30
2022-12-18T06:36:25.310Z,33.77
2022-12-18T06:38:55.485Z,41.83
2022-12-18T06:41:24.371Z,38.90
2022-12-18T06:43:58.162Z,32.53
2022-12-18T06:46:28.493Z,43.80
2022-12-18T06:48:57.198Z,42.20
2022-12-18T06:51:26.748Z,39.43
2022-12-18T06:53:57.139Z,38.07
2022-12-18T06:56:25.773Z,35.13
2022-12-18T06:58:54.723Z,38.23
2022-12-18T07:01:24.060Z,37.43
2022-12-18T07:03:56.004Z,37.47
2022-12-18T07:06:26.720Z,39.57
2022-12-18T07:08:57.042Z,37.20
2022-12-18T07:11:25.920Z,37.37
2022-12-18T07:13:55.553Z,35.50
2022-12-18T07:16:26.013Z,44.27
2022-12-18T07:18:55.175Z,33.47
2022-12-18T07:21:24.550Z,41.53
2022-12-18T07:23:53.500Z,37.17
2022-12-18T07:26:24.733Z,37.90
2022-12-18T07:28:56.798Z,32.60
2022-12-18T07:31:25.744Z,34.87
2022-12-18T07:33:55.113Z,38.83
2022-12-18T07:36:23.877Z,42.87
2022-12-18T07:38:53.727Z,40.30
2022-12-18T07:41:24.302Z,43.23
2022-12-18T07:43:53.014Z,39.93
2022-12-18T07:46:22.066Z,45.87
2022-12-18T07:48:50.919Z,42.67
2022-12-18T07:51:20.257Z,48.93
2022-12-18T07:53:52.288Z,51.37
2022-12-18T07:56:28.137Z,46.03
2022-12-18T07:58:58.683Z,52.53
2022-12-18T08:01:27.591Z,51.67
2022-12-18T08:03:56.534Z,53.13
2022-12-18T08:06:25.467Z,48.10
2022-12-18T08:08:55.264Z,50.13
2022-12-18T08:11:28.335Z,45.30
2022-12-18T08:13:57.959Z,45.73
2022-12-18T08:16:26.818Z,47.33
2022-12-18T08:18:56.470Z,36.27
2022-12-18T08:21:27.691Z,43.30
2022-12-18T08:23:57.857Z,47.70
2022-12-18T08:26:29.940Z,37.13
2022-12-18T08:29:00.490Z,32.13
2022-12-18T08:31:31.392Z,28.00
2022-12-18T08:34:00.138Z,32.67
2022-12-18T08:36:29.030Z,29.90
2022-12-18T08:38:57.877Z,29.57
2022-12-18T08:41:29.434Z,35.53
2022-12-18T08:44:16.485Z,34.17
2022-12-18T08:46:46.539Z,32.10
2022-12-18T08:49:15.911Z,38.10
2022-12-18T08:51:44.766Z,35.20
2022-12-18T08:54:14.981Z,30.33
2022-12-18T08:56:45.088Z,40.10
2022-12-18T08:59:19.339Z,37.20
2022-12-18T09:01:49.579Z,32.63
2022-12-18T09:04:18.820Z,30.00
2022-12-18T09:06:47.652Z,33.67
2022-12-18T09:09:16.718Z,32.73
2022-12-18T09:11:52.820Z,34.00
2022-12-18T09:14:23.874Z,32.47
2022-12-18T09:16:54.609Z,32.03
2022-12-18T09:19:26.183Z,32.00
2022-12-18T09:21:58.188Z,32.67
2022-12-18T09:24:28.358Z,32.10
2022-12-18T09:26:59.662Z,25.43
2022-12-18T09:29:28.896Z,31.53
2022-12-18T09:31:58.128Z,36.63
2022-12-18T09:34:28.278Z,24.83
2022-12-18T09:36:59.381Z,25.27
2022-12-18T09:39:32.695Z,38.30
2022-12-18T09:42:05.098Z,30.17
2022-12-18T09:44:45.161Z,29.23
2022-12-18T09:47:21.717Z,34.20
2022-12-18T09:49:57.347Z,28.30
2022-12-18T09:52:40.289Z,24.70
2022-12-18T09:55:21.631Z,28.13
2022-12-18T09:57:58.177Z,27.00
2022-12-18T10:00:30.287Z,36.28
2022-12-18T10:03:13.286Z,35.70
2022-12-18T10:05:51.731Z,27.80
2022-12-18T10:08:28.767Z,34.03
2022-12-18T10:11:04.210Z,25.80
2022-12-18T10:13:40.857Z,34.43
2022-12-18T10:16:18.813Z,26.90
2022-12-18T10:19:04.084Z,33.07
2022-12-18T10:21:39.579Z,31.83
2022-12-18T10:24:18.123Z,30.10
2022-12-18T10:26:47.728Z,36.30
2022-12-18T10:29:19.666Z,35.93
2022-12-18T10:31:48.965Z,35.67
2022-12-18T10:34:17.936Z,26.20
2022-12-18T10:36:49.339Z,27.83
2022-12-18T10:39:20.645Z,33.97
2022-12-18T10:41:50.888Z,38.20
2022-12-18T10:44:25.266Z,36.83
2022-12-18T10:46:58.302Z,29.00
2022-12-18T10:49:29.702Z,34.17
2022-12-18T10:52:13.602Z,34.00
2022-12-18T10:54:42.624Z,35.23
2022-12-18T10:57:19.730Z,36.70
2022-12-18T10:59:57.281Z,38.37
2022-12-18T11:02:37.317Z,26.23
2022-12-18T11:05:25.758Z,33.63
2022-12-18T11:07:56.346Z,27.57
2022-12-18T11:10:31.836Z,44.63
2022-12-18T11:13:20.008Z,38.00
2022-12-18T11:15:50.797Z,41.07
2022-12-18T11:18:24.808Z,36.77
2022-12-18T11:20:58.772Z,39.73
2022-12-18T11:23:29.091Z,42.90
2022-12-18T11:26:02.942Z,35.23
2022-12-18T11:28:39.362Z,38.83
2022-12-18T11:31:20.398Z,41.90
2022-12-18T11:34:26.968Z,36.10
2022-12-18T11:36:48.336Z,36.27
2022-12-18T11:39:23.362Z,46.43
2022-12-18T11:42:13.802Z,42.97
2022-12-18T11:44:50.042Z,38.27
2022-12-18T11:47:30.933Z,42.33
2022-12-18T11:50:04.192Z,32.37
2022-12-18T11:52:41.458Z,43.23
2022-12-18T11:55:16.506Z,42.30
2022-12-18T11:57:55.286Z,44.13
2022-12-18T12:00:26.585Z,32.00
2022-12-18T12:03:34.316Z,36.20
2022-12-18T12:06:12.955Z,46.67
2022-12-18T12:08:55.700Z,35.53
2022-12-18T12:11:35.189Z,38.67
2022-12-18T12:14:20.466Z,36.90
2022-12-18T12:16:55.604Z,36.30
2022-12-18T12:19:37.661Z,35.53
2022-12-18T12:22:15.936Z,42.77
2022-12-18T12:24:57.971Z,41.60
2022-12-18T12:27:37.735Z,36.70
2022-12-18T12:30:10.638Z,41.67
2022-12-18T12:32:52.258Z,39.07
2022-12-18T12:35:38.861Z,38.70
2022-12-18T12:38:13.349Z,44.50
2022-12-18T12:40:55.187Z,41.00
2022-12-18T12:43:38.381Z,36.20
2022-12-18T12:46:13.235Z,40.53
2022-12-18T12:48:46.918Z,42.60
2022-12-18T12:51:22.407Z,35.27
2022-12-18T12:53:53.044Z,42.67
2022-12-18T12:56:23.638Z,38.87
2022-12-18T12:59:01.508Z,40.20
2022-12-18T13:01:39.561Z,47.47
2022-12-18T13:04:21.787Z,42.13
2022-12-18T13:07:02.170Z,44.43
2022-12-18T13:09:35.020Z,46.87
2022-12-18T13:12:24.138Z,56.00
2022-12-18T13:14:53.020Z,52.20
2022-12-18T13:17:33.830Z,42.03
2022-12-18T13:20:15.617Z,44.30
2022-12-18T13:22:50.134Z,41.40
2022-12-18T13:25:34.718Z,50.90
2022-12-18T13:28:15.635Z,48.77
2022-12-18T13:30:57.436Z,44.97
2022-12-18T13:34:09.382Z,45.43
2022-12-18T13:36:36.378Z,30.40
2022-12-18T13:39:32.921Z,44.83
2022-12-18T13:42:59.529Z,39.40
2022-12-18T13:45:50.284Z,45.63
2022-12-18T13:48:21.758Z,43.47
2022-12-18T13:51:05.699Z,41.33
2022-12-18T13:53:45.818Z,40.90
2022-12-18T13:56:20.590Z,44.30
2022-12-18T13:59:14.286Z,45.47
2022-12-18T14:01:53.194Z,43.93
2022-12-18T14:04:29.411Z,35.47
2022-12-18T14:07:04.150Z,39.73
2022-12-18T14:09:40.462Z,38.63
2022-12-18T14:12:36.735Z,51.10
2022-12-18T14:15:08.543Z,35.93
2022-12-18T14:17:39.429Z,45.30
2022-12-18T14:20:17.156Z,34.13
2022-12-18T14:22:47.557Z,39.53
2022-12-18T14:25:23.493Z,41.73
2022-12-18T14:28:04.634Z,44.70
2022-12-18T14:30:35.767Z,40.23
2022-12-18T14:33:10.629Z,40.60
2022-12-18T14:35:45.830Z,40.17
2022-12-18T14:38:25.613Z,41.17
2022-12-18T14:41:00.754Z,42.30
2022-12-18T14:43:35.479Z,55.17
2022-12-18T14:46:06.321Z,44.13
2022-12-18T14:48:40.170Z,45.30
2022-12-18T14:51:18.438Z,64.73
2022-12-18T14:53:54.554Z,61.20
2022-12-18T14:56:27.698Z,60.80
2022-12-18T14:59:00.455Z,51.97
2022-12-18T15:01:32.834Z,59.70
2022-12-18T15:04:03.470Z,53.57
2022-12-18T15:06:44.374Z,49.40
2022-12-18T15:09:27.558Z,58.03
2022-12-18T15:12:01.092Z,66.63
2022-12-18T15:14:43.939Z,61.50
2022-12-18T15:17:21.850Z,57.93
2022-12-18T15:19:55.731Z,67.40
2022-12-18T15:22:31.758Z,61.73
2022-12-18T15:25:04.295Z,52.00
2022-12-18T15:27:37.621Z,46.43
2022-12-18T15:30:26.317Z,51.50
2022-12-18T15:33:27.941Z,59.43
2022-12-18T15:36:02.769Z,60.40
2022-12-18T15:38:34.357Z,54.57
2022-12-18T15:41:10.109Z,46.40
2022-12-18T15:43:42.500Z,61.67
2022-12-18T15:46:16.674Z,73.63
2022-12-18T15:48:49.137Z,54.37
2022-12-18T15:51:26.656Z,51.77
2022-12-18T15:53:59.129Z,67.20
2022-12-18T15:56:47.069Z,55.67
2022-12-18T15:59:20.170Z,54.53
2022-12-18T16:01:58.174Z,68.27
2022-12-18T16:04:29.893Z,64.67
2022-12-18T16:07:14.723Z,62.47
2022-12-18T16:09:51.048Z,69.03
2022-12-18T16:12:26.968Z,62.30
2022-12-18T16:18:28.308Z,65.60
2022-12-18T16:21:01.368Z,59.40
2022-12-18T16:23:40.237Z,65.10
2022-12-18T16:26:11.274Z,60.50
2022-12-18T16:28:48.650Z,56.40
2022-12-18T16:31:21.375Z,60.30
2022-12-18T16:33:54.037Z,48.03
2022-12-18T16:36:28.850Z,54.63
2022-12-18T16:39:00.309Z,59.30
2022-12-18T16:41:37.016Z,60.90
2022-12-18T16:44:07.809Z,49.53
2022-12-18T16:46:39.840Z,55.33
2022-12-18T16:49:12.848Z,48.47
2022-12-18T16:51:43.496Z,59.53
2022-12-18T16:54:18.996Z,62.97
2022-12-18T16:56:51.426Z,61.03
2022-12-18T16:59:22.174Z,61.30
2022-12-18T17:01:56.451Z,52.40
2022-12-18T17:04:28.994Z,60.97
2022-12-18T17:06:59.661Z,59.00
2022-12-18T17:09:31.096Z,59.87
2022-12-18T17:12:04.424Z,63.00
2022-12-18T17:14:35.708Z,65.27
2022-12-18T17:17:20.919Z,64.37
2022-12-18T17:19:56.990Z,59.70
2022-12-18T17:22:28.382Z,64.20
2022-12-18T17:25:05.933Z,64.20
2022-12-18T17:27:36.502Z,55.00
2022-12-18T17:30:13.588Z,63.50
2022-12-18T17:32:47.700Z,65.97
2022-12-18T17:35:20.729Z,64.47
2022-12-18T17:37:52.329Z,67.03
2022-12-18T17:40:25.591Z,64.40
2022-12-18T17:43:00.387Z,66.80
2022-12-18T17:45:36.906Z,82.07
2022-12-18T17:48:13.066Z,78.57
2022-12-18T17:50:45.220Z,72.73
2022-12-18T17:53:16.509Z,67.27
2022-12-18T17:55:47.430Z,67.77
2022-12-18T17:58:20.004Z,75.80
2022-12-18T18:00:51.578Z,64.00
2022-12-18T18:03:22.403Z,74.67
2022-12-18T18:05:58.621Z,73.80
2022-12-18T18:08:33.883Z,82.30
2022-12-18T18:11:23.293Z,89.70
2022-12-18T18:14:06.194Z,73.53
2022-12-18T18:16:39.284Z,77.83
2022-12-18T18:19:11.230Z,75.50
2022-12-18T18:21:47.690Z,73.50
2022-12-18T18:24:20.016Z,82.07
2022-12-18T18:27:00.906Z,77.03
2022-12-18T18:29:34.347Z,81.70
2022-12-18T18:32:06.200Z,76.37
2022-12-18T18:34:37.404Z,85.93
2022-12-18T18:37:12.362Z,87.90
2022-12-18T18:39:45.223Z,84.93
2022-12-18T18:42:15.193Z,98.43
2022-12-18T18:44:48.897Z,95.80
2022-12-18T18:47:20.459Z,82.07
2022-12-18T18:49:52.445Z,97.07
2022-12-18T18:52:26.235Z,95.63
2022-12-18T18:55:12.740Z,97.77
2022-12-18T18:57:46.367Z,94.40
2022-12-18T19:00:20.156Z,108.67
2022-12-18T19:02:56.327Z,99.30
2022-12-18T19:05:33.540Z,96.27
2022-12-18T19:08:08.439Z,104.77
2022-12-18T19:10:42.803Z,106.83
2022-12-18T19:13:26.829Z,110.07
2022-12-18T19:15:58.843Z,110.07
2022-12-18T19:18:32.352Z,106.67
2022-12-18T19:21:07.692Z,111.07
2022-12-18T19:23:40.420Z,115.53
2022-12-18T19:26:28.522Z,109.17
2022-12-18T19:29:04.614Z,103.50
2022-12-18T19:31:37.019Z,110.93
2022-12-18T19:34:10.430Z,104.70
2022-12-18T19:36:59.613Z,111.13
2022-12-18T19:39:32.688Z,111.90
2022-12-18T19:42:02.290Z,119.17
2022-12-18T19:44:32.503Z,107.07
2022-12-18T19:47:03.522Z,120.63
2022-12-18T19:49:35.409Z,96.77
2022-12-18T19:52:05.460Z,114.77
2022-12-18T19:54:38.954Z,110.70
2022-12-18T19:57:12.135Z,110.93
2022-12-18T19:59:42.327Z,102.43
2022-12-18T20:02:19.036Z,112.63
2022-12-18T20:04:50.886Z,113.33
2022-12-18T20:07:20.911Z,104.27
2022-12-18T20:09:59.608Z,106.87
2022-12-18T20:12:35.241Z,113.83
2022-12-18T20:15:06.512Z,131.63
2022-12-18T20:17:36.482Z,110.73
2022-12-18T20:20:07.309Z,101.30
2022-12-18T20:22:37.935Z,116.17
2022-12-18T20:25:11.660Z,100.60
2022-12-18T20:27:42.281Z,108.33
2022-12-18T20:30:13.110Z,104.30
2022-12-18T20:32:43.113Z,102.37
2022-12-18T20:35:14.003Z,98.57
2022-12-18T20:37:48.727Z,101.43
2022-12-18T20:40:24.203Z,108.47
2022-12-18T20:42:57.019Z,102.87
2022-12-18T20:45:26.454Z,96.73
2022-12-18T20:48:01.970Z,102.50
2022-12-18T20:50:32.123Z,100.90
2022-12-18T20:53:01.681Z,102.00
2022-12-18T20:55:34.221Z,107.33
2022-12-18T20:58:03.622Z,112.27
2022-12-18T21:00:33.424Z,94.07
2022-12-18T21:03:02.539Z,99.10
2022-12-18T21:05:32.662Z,100.67
2022-12-18T21:08:02.992Z,92.70
2022-12-18T21:10:33.587Z,92.43
2022-12-18T21:13:04.476Z,96.30
2022-12-18T21:15:34.020Z,107.13
2022-12-18T21:18:03.323Z,93.67
2022-12-18T21:20:33.354Z,106.43
2022-12-18T21:23:13.236Z,101.67
2022-12-18T21:25:48.204Z,100.20
2022-12-18T21:28:21.228Z,105.00
2022-12-18T21:30:50.704Z,108.00
2022-12-18T21:33:19.743Z,105.97
2022-12-18T21:35:48.914Z,103.60
2022-12-18T21:38:18.023Z,114.73
2022-12-18T21:40:48.474Z,113.77
2022-12-18T21:43:34.972Z,104.57
2022-12-18T21:46:03.999Z,105.43
2022-12-18T21:48:32.779Z,117.03
2022-12-18T21:51:01.863Z,124.20
2022-12-18T21:53:30.721Z,123.27
2022-12-18T21:56:01.683Z,120.80
2022-12-18T21:58:30.468Z,115.60
2022-12-18T22:00:59.379Z,109.63
2022-12-18T22:03:28.394Z,117.27
2022-12-18T22:06:09.490Z,135.80
2022-12-18T22:08:43.533Z,118.73
2022-12-18T22:11:16.213Z,118.37
2022-12-18T22:13:46.950Z,120.80
2022-12-18T22:16:15.787Z,125.37
2022-12-18T22:18:44.884Z,119.47
2022-12-18T22:21:29.038Z,117.83
2022-12-18T22:23:59.850Z,118.93
2022-12-18T22:26:39.437Z,121.20
2022-12-18T22:29:28.537Z,114.63
2022-12-18T22:31:58.993Z,121.40
2022-12-18T22:34:28.726Z,118.43
2022-12-18T22:36:57.901Z,113.63
2022-12-18T22:39:28.863Z,120.90
2022-12-18T22:41:59.810Z,131.60
2022-12-18T22:44:28.657Z,118.07
2022-12-18T22:47:06.023Z,140.03
2022-12-18T22:49:36.776Z,122.83
2022-12-18T22:52:07.416Z,119.60
2022-12-18T22:54:36.384Z,116.80
2022-12-18T22:57:06.681Z,118.60
2022-12-18T22:59:36.282Z,122.50
2022-12-18T23:02:05.228Z,127.07
2022-12-18T23:04:36.558Z,122.73
2022-12-18T23:07:05.902Z,119.07
2022-12-18T23:09:35.888Z,124.57
2022-12-18T23:12:07.080Z,123.47
2022-12-18T23:14:36.039Z,126.63
2022-12-18T23:17:04.906Z,133.20
2022-12-18T23:19:33.750Z,123.73
2022-12-18T23:22:03.511Z,120.87
2022-12-18T23:24:34.898Z,132.13
2022-12-18T23:27:03.690Z,127.67
2022-12-18T23:29:38.104Z,127.40
2022-12-18T23:32:07.052Z,122.27
2022-12-18T23:34:35.859Z,131.30
2022-12-18T23:37:04.938Z,126.67
2022-12-18T23:39:33.705Z,124.50
2022-12-18T23:42:02.840Z,131.47
2022-12-18T23:44:31.634Z,127.60
2022-12-18T23:47:01.931Z,128.60
2022-12-18T23:49:30.778Z,139.70
2022-12-18T23:51:59.844Z,132.77
2022-12-18T23:54:32.689Z,124.23
2022-12-18T23:57:01.955Z,136.33
2022-12-18T23:59:30.867Z,127.63
